Airport Name : Bradshaw AAF

Other Name : Pohakuloa

ICAO : PHSF

IATA : BSF

FAA : PBSF

Latitude : 19.760056

Longitude : -155.553717

Country : United States

Local Date and Time : 10/15/2018 10:54:00 AM

 

TAF (Terminal Aerodrome Forecast)

 

METAR (METeorological Aerodrome Report)

PHSF 151956Z AUTO 26004KT 10SM CLR 19/10 A3030 RMK AO2 SLP147 WND DATA ESTMD T01940097 PWINO $

PHSF 151856Z AUTO 25003KT M M CLR 19/08 A3028 RMK AO2 SLP140 WND DATA ESTMD T01870079 PWINO $

PHSF 151756Z AUTO 00000KT 10SM CLR 17/10 A3026 RMK AO2 SLP137 WND DATA ESTMD T01720096 10172 20073 52011 $

PHSF 151656Z AUTO 13004KT 10SM CLR 10/06 A3025 RMK AO2 SLP146 WND DATA ESTMD T00950058 PWINO $